Time;durP1;ratioP1;P1;durP2;ratioP2;P2;SDS_P1;SDS_P2;PMS_P1;PMS_P2;Temp;Humidity;BMP_temperature;BMP_pressure;BME280_temperature;BME280_humidity;BME280_pressure;Samples;Min_cycle;Max_cycle;Signal;HPM_P1;HPM_P2
2021/12/09 00:02:24;;;;;;;26.97;13.72;;;;;;;-3.10;78.87;100215.60;1669795;85;27587;-82
2021/12/09 00:04:53;;;;;;;24.63;12.75;;;;;;;-3.01;79.11;100243.77;1667229;83;25950;-82
2021/12/09 00:07:18;;;;;;;31.05;12.45;;;;;;;-3.00;79.16;100241.53;1667339;84;25752;-82
2021/12/09 00:09:45;;;;;;;29.67;14.20;;;;;;;-3.02;79.22;100248.66;1666780;85;25859;-82
2021/12/09 00:12:11;;;;;;;28.80;13.38;;;;;;;-3.06;79.43;100252.92;1670763;84;26434;-82
2021/12/09 00:14:37;;;;;;;27.75;12.90;;;;;;;-3.03;79.69;100247.44;1667617;84;27487;-82
2021/12/09 00:17:09;;;;;;;30.17;14.63;;;;;;;-3.03;79.90;100250.91;1669845;85;25822;-82
2021/12/09 00:19:37;;;;;;;27.98;13.40;;;;;;;-3.04;79.95;100251.87;1668823;85;25834;-82
2021/12/09 00:22:07;;;;;;;29.92;14.50;;;;;;;-3.09;79.96;100253.13;1666740;84;26696;-81
2021/12/09 00:24:34;;;;;;;30.35;13.50;;;;;;;-3.10;80.16;100254.08;1668601;84;25885;-82
2021/12/09 00:27:02;;;;;;;29.98;14.47;;;;;;;-3.12;80.29;100255.48;1669771;85;27540;-82
2021/12/09 00:29:29;;;;;;;28.50;12.28;;;;;;;-3.10;80.48;100266.69;1667252;85;25823;-81
2021/12/09 00:31:55;;;;;;;33.18;13.60;;;;;;;-3.09;80.67;100266.22;1666846;84;25935;-82
2021/12/09 00:34:31;;;;;;;34.48;16.35;;;;;;;-3.08;81.02;100269.22;1667190;85;25846;-82
2021/12/09 00:37:14;;;;;;;42.62;16.85;;;;;;;-3.08;81.02;100269.22;1662226;85;25827;-81
2021/12/09 00:39:25;;;;;;;45.30;18.70;;;;;;;-3.05;80.99;100268.52;1668315;85;27485;-83
2021/12/09 00:41:51;;;;;;;41.80;17.15;;;;;;;-3.05;80.99;100268.52;1669856;83;25327;-82
2021/12/09 00:44:17;;;;;;;36.20;14.98;;;;;;;-3.06;81.37;100269.48;1666487;83;25930;-81
2021/12/09 00:46:43;;;;;;;33.02;16.30;;;;;;;-3.05;81.11;100275.06;1665349;85;26565;-82
2021/12/09 00:49:10;;;;;;;35.70;16.02;;;;;;;-3.03;81.42;100275.80;1665966;84;26087;-81
2021/12/09 00:51:36;;;;;;;39.50;15.85;;;;;;;-2.95;81.92;100268.72;1668455;83;27468;-82
2021/12/09 00:54:04;;;;;;;35.43;16.50;;;;;;;-2.95;81.92;100268.72;1667143;84;25953;-82
2021/12/09 00:56:30;;;;;;;31.48;15.48;;;;;;;-2.96;81.69;100265.72;1666236;84;25788;-82
2021/12/09 00:58:57;;;;;;;33.88;17.10;;;;;;;-2.95;81.80;100267.41;1669777;85;25927;-82
2021/12/09 01:01:24;;;;;;;38.13;17.00;;;;;;;-2.96;81.85;100258.70;1668791;85;25908;-82
2021/12/09 01:03:51;;;;;;;34.20;15.72;;;;;;;-2.96;82.05;100261.32;1670102;84;27458;-82
2021/12/09 01:06:18;;;;;;;33.33;16.60;;;;;;;-2.91;82.00;100259.69;1671843;84;26199;-82
2021/12/09 01:08:45;;;;;;;37.58;16.12;;;;;;;-2.91;81.95;100260.99;1678027;84;25765;-83
2021/12/09 01:11:14;;;;;;;39.53;15.80;;;;;;;-2.92;81.93;100258.84;1676436;84;25872;-82
2021/12/09 01:13:42;;;;;;;39.75;18.75;;;;;;;-2.95;81.68;100256.92;1679437;84;25760;-82
2021/12/09 01:16:11;;;;;;;41.30;19.67;;;;;;;-2.95;81.68;100256.92;1675806;84;27468;-82
2021/12/09 01:18:39;;;;;;;34.60;15.80;;;;;;;-2.95;82.02;100263.47;1672785;84;26472;-82
2021/12/09 01:21:06;;;;;;;40.70;17.52;;;;;;;-2.98;81.99;100254.52;1676097;84;25840;-82
2021/12/09 01:23:32;;;;;;;32.53;15.85;;;;;;;-2.98;82.29;100252.73;1675928;84;25963;-82
2021/12/09 01:26:03;;;;;;;32.33;14.78;;;;;;;-2.98;82.29;100252.73;1675409;84;25328;-82
2021/12/09 01:28:36;;;;;;;33.78;14.00;;;;;;;-2.96;82.43;100251.30;1678944;84;28308;-83
2021/12/09 01:31:05;;;;;;;29.72;15.35;;;;;;;-2.96;82.37;100259.17;1672559;84;25951;-82
2021/12/09 01:33:32;;;;;;;24.20;11.57;;;;;;;-2.98;82.23;100250.11;1672493;84;25283;-82
2021/12/09 01:35:59;;;;;;;29.50;12.60;;;;;;;-3.00;82.17;100241.53;1671391;84;25770;-82
2021/12/09 01:38:29;;;;;;;32.48;15.20;;;;;;;-3.01;82.40;100239.00;1674189;84;25841;-82
2021/12/09 01:40:55;;;;;;;30.30;15.00;;;;;;;-3.01;82.40;100239.00;1676193;84;27677;-82
2021/12/09 01:43:23;;;;;;;33.50;14.93;;;;;;;-2.99;82.57;100243.69;1685627;84;26554;-82
2021/12/09 01:46:05;;;;;;;27.85;13.28;;;;;;;-3.00;82.62;100234.98;1674360;84;25855;-82
2021/12/09 01:48:32;;;;;;;30.77;13.30;;;;;;;-3.02;82.52;100229.48;1675912;84;25763;-82
2021/12/09 01:50:58;;;;;;;26.25;13.70;;;;;;;-3.04;82.49;100230.91;1676002;84;25822;-82
2021/12/09 01:53:25;;;;;;;31.05;13.83;;;;;;;-3.08;82.45;100222.91;1684036;84;27457;-82
2021/12/09 01:55:52;;;;;;;26.40;13.32;;;;;;;-3.06;82.57;100226.72;1675791;84;25885;-82
2021/12/09 01:58:18;;;;;;;28.07;13.70;;;;;;;-3.12;82.38;100218.34;1672268;84;26443;-82
2021/12/09 02:00:44;;;;;;;29.25;14.10;;;;;;;-3.15;82.26;100218.58;1683698;84;25823;-82
2021/12/09 02:03:11;;;;;;;32.73;16.07;;;;;;;-3.26;82.31;100215.88;1676952;84;25769;-82
2021/12/09 02:05:40;;;;;;;34.33;15.72;;;;;;;-3.26;82.31;100215.88;1683110;84;27459;-82
2021/12/09 02:08:05;;;;;;;32.17;14.05;;;;;;;-3.27;82.30;100219.89;1678392;84;25784;-82
2021/12/09 02:10:31;;;;;;;33.65;15.78;;;;;;;-3.27;82.30;100219.89;1678158;84;25840;-82
2021/12/09 02:12:58;;;;;;;32.63;15.00;;;;;;;-3.22;82.32;100225.19;1675576;84;25789;-82
2021/12/09 02:15:25;;;;;;;28.35;13.78;;;;;;;-3.24;82.28;100230.17;1676942;84;26000;-82
2021/12/09 02:17:52;;;;;;;32.80;14.95;;;;;;;-3.25;82.30;100219.34;1681084;84;27449;-81
2021/12/09 02:20:19;;;;;;;32.17;15.53;;;;;;;-3.24;82.33;100224.93;1675704;84;25570;-82
2021/12/09 02:22:47;;;;;;;31.37;14.68;;;;;;;-3.29;81.97;100208.69;1678499;84;25783;-81
2021/12/09 02:25:17;;;;;;;32.67;15.38;;;;;;;-3.29;81.97;100208.69;1678905;84;26519;-82
2021/12/09 02:27:45;;;;;;;33.23;15.20;;;;;;;-3.25;82.28;100214.92;1673177;84;25749;-81
2021/12/09 02:30:13;;;;;;;28.27;14.35;;;;;;;-3.24;82.17;100204.82;1676610;83;27471;-82
2021/12/09 02:32:40;;;;;;;30.55;15.85;;;;;;;-3.21;82.04;100203.77;1676661;84;25766;-81
2021/12/09 02:35:07;;;;;;;30.55;13.85;;;;;;;-3.23;81.93;100192.57;1676244;84;25761;-81
2021/12/09 02:37:34;;;;;;;31.33;14.83;;;;;;;-3.26;81.48;100183.61;1680963;84;26591;-82
2021/12/09 02:40:00;;;;;;;32.55;15.00;;;;;;;-3.30;81.25;100182.16;1675673;84;25780;-81
2021/12/09 02:42:26;;;;;;;28.55;12.58;;;;;;;-3.35;81.16;100173.32;1678446;84;27452;-81
2021/12/09 02:44:55;;;;;;;29.30;13.80;;;;;;;-3.40;81.04;100168.88;1677649;84;25780;-82
2021/12/09 02:47:22;;;;;;;30.08;14.78;;;;;;;-3.49;81.13;100172.17;1676193;84;25795;-81
2021/12/09 02:49:49;;;;;;;34.95;14.07;;;;;;;-3.49;81.13;100172.17;1676637;84;25825;-81
2021/12/09 02:52:15;;;;;;;26.95;13.32;;;;;;;-3.49;81.25;100168.70;1674194;83;26670;-82
2021/12/09 02:54:42;;;;;;;26.75;12.80;;;;;;;-3.56;81.33;100168.30;1674308;84;27610;-81
2021/12/09 02:57:09;;;;;;;28.30;13.03;;;;;;;-3.53;81.53;100165.94;1675126;84;26516;-82
2021/12/09 02:59:36;;;;;;;30.57;14.23;;;;;;;-3.53;81.46;100173.30;1682519;84;25774;-81
2021/12/09 03:02:05;;;;;;;28.67;14.13;;;;;;;-3.53;81.46;100173.30;1680392;84;26458;-81
2021/12/09 03:04:52;;;;;;;28.95;14.07;;;;;;;-3.52;81.86;100178.91;1683443;84;26767;-81
2021/12/09 03:07:34;;;;;;;29.12;14.10;;;;;;;-3.45;82.09;100183.25;1673374;84;28295;-82
2021/12/09 03:10:10;;;;;;;25.48;12.13;;;;;;;-3.45;82.09;100183.25;1662543;83;26531;-81
2021/12/09 03:12:40;;;;;;;34.75;18.50;;;;;;;-3.46;81.89;100182.87;1662790;85;25797;-83
2021/12/09 03:15:08;;;;;;;33.83;15.88;;;;;;;-3.48;81.96;100189.53;1670577;85;25906;-81
2021/12/09 03:17:38;;;;;;;28.40;12.68;;;;;;;-3.42;82.17;100181.23;1672305;84;26239;-82
2021/12/09 03:20:08;;;;;;;30.10;15.40;;;;;;;-3.42;82.17;100181.23;1650732;85;28358;-81
2021/12/09 03:22:35;;;;;;;;;;;;;;;-3.40;82.07;100181.15;1671668;84;25798;-81
2021/12/09 03:25:06;;;;;;;40.40;18.65;;;;;;;-3.46;82.34;100164.55;1667134;85;25401;-82
2021/12/09 03:27:32;;;;;;;37.83;18.20;;;;;;;-3.46;82.34;100164.55;1670953;85;32442;-81
2021/12/09 03:29:58;;;;;;;48.63;23.32;;;;;;;-3.42;81.94;100167.33;1674409;84;26309;-81
2021/12/09 03:32:24;;;;;;;42.27;19.92;;;;;;;-3.42;81.94;100167.33;1670752;84;27619;-81
2021/12/09 03:34:51;;;;;;;53.63;25.12;;;;;;;-3.32;81.95;100174.89;1669349;85;25859;-81
2021/12/09 03:37:22;;;;;;;38.10;17.75;;;;;;;-3.35;81.76;100169.86;1668476;85;26280;-82
2021/12/09 03:39:50;;;;;;;43.58;20.40;;;;;;;-3.37;81.74;100175.21;1669874;84;26574;-81
2021/12/09 03:42:21;;;;;;;44.70;20.82;;;;;;;-3.43;81.87;100174.34;1668396;85;25808;-81
2021/12/09 03:44:49;;;;;;;31.33;15.53;;;;;;;-3.43;81.87;100174.34;1666827;84;27470;-81
2021/12/09 03:47:20;;;;;;;41.53;20.25;;;;;;;-3.42;81.68;100171.27;1670818;84;25781;-81
2021/12/09 03:49:47;;;;;;;46.48;21.73;;;;;;;-3.41;81.79;100177.69;1670851;84;25873;-82
2021/12/09 03:52:14;;;;;;;33.90;16.37;;;;;;;-3.42;81.81;100184.35;1671207;85;25815;-83
2021/12/09 03:54:44;;;;;;;31.87;15.70;;;;;;;-3.42;81.92;100185.66;1670506;84;25944;-81
2021/12/09 03:57:12;;;;;;;32.08;15.55;;;;;;;-3.43;81.92;100176.12;1666386;84;30849;-82
2021/12/09 03:59:39;;;;;;;34.33;17.42;;;;;;;-3.52;81.97;100169.75;1669698;85;26218;-82
2021/12/09 04:02:06;;;;;;;32.98;13.75;;;;;;;-3.48;82.07;100182.14;1669585;85;25798;-82
2021/12/09 04:04:33;;;;;;;39.83;16.55;;;;;;;-3.48;82.07;100182.14;1667050;85;25754;-81
2021/12/09 04:07:00;;;;;;;40.43;19.25;;;;;;;-3.55;82.18;100170.45;1668420;84;25777;-82
2021/12/09 04:09:26;;;;;;;43.73;20.25;;;;;;;-3.45;82.36;100182.78;1669724;85;27502;-81
2021/12/09 04:11:53;;;;;;;30.62;13.43;;;;;;;-3.43;82.26;100185.28;1669811;84;25806;-82
2021/12/09 04:14:20;;;;;;;35.80;18.65;;;;;;;-3.43;82.26;100185.28;1668063;85;25972;-82
2021/12/09 04:16:48;;;;;;;40.03;16.50;;;;;;;-3.42;82.42;100185.16;1663011;84;25805;-82
2021/12/09 04:19:15;;;;;;;44.77;19.85;;;;;;;-3.42;82.35;100198.75;1659696;85;25654;-82
2021/12/09 04:21:42;;;;;;;38.25;17.25;;;;;;;-3.43;82.51;100200.99;1668481;84;27451;-81
2021/12/09 04:24:11;;;;;;;44.80;19.73;;;;;;;-3.43;82.51;100200.99;1665945;85;25952;-81
2021/12/09 04:26:41;;;;;;;34.65;17.95;;;;;;;-3.39;82.60;100213.77;1669223;84;25880;-82
2021/12/09 04:29:10;;;;;;;47.75;22.60;;;;;;;-3.38;82.62;100202.33;1666260;85;25910;-82
2021/12/09 04:31:37;;;;;;;43.52;20.77;;;;;;;-3.35;82.74;100211.75;1669576;85;25338;-81
2021/12/09 04:34:04;;;;;;;40.43;19.05;;;;;;;-3.35;82.78;100202.59;1664916;85;27435;-82
2021/12/09 04:36:30;;;;;;;35.50;20.15;;;;;;;-3.33;82.67;100211.17;1662646;84;25928;-81
2021/12/09 04:38:56;;;;;;;42.58;20.92;;;;;;;-3.33;82.69;100208.09;1673259;84;25879;-81
2021/12/09 04:41:24;;;;;;;38.00;18.30;;;;;;;-3.40;82.78;100201.60;1662217;85;26533;-81
2021/12/09 04:43:50;;;;;;;36.83;18.25;;;;;;;-3.35;82.87;100205.20;1661883;85;25816;-81
2021/12/09 04:46:17;;;;;;;38.63;18.55;;;;;;;-3.36;82.82;100209.59;1678327;84;27460;-81
2021/12/09 04:48:44;;;;;;;47.17;26.82;;;;;;;-3.39;83.07;100216.37;1672073;84;25953;-81
2021/12/09 04:51:11;;;;;;;42.10;22.73;;;;;;;-3.39;83.07;100216.37;1669694;85;25301;-82
2021/12/09 04:53:38;;;;;;;77.40;38.08;;;;;;;-3.37;82.97;100226.73;1667000;85;26461;-83
2021/12/09 04:56:05;;;;;;;60.63;28.55;;;;;;;-3.37;82.97;100226.73;1666747;85;25771;-82
2021/12/09 04:58:31;;;;;;;57.78;30.20;;;;;;;-3.36;82.84;100215.33;1670846;84;27467;-81
2021/12/09 05:01:01;;;;;;;45.63;24.72;;;;;;;-3.34;82.90;100206.89;1665789;85;25830;-82
2021/12/09 05:03:27;;;;;;;42.43;18.92;;;;;;;-3.31;82.99;100211.43;1668668;85;25934;-81
2021/12/09 05:05:56;;;;;;;58.17;26.77;;;;;;;-3.31;82.99;100212.73;1664859;85;25825;-82
2021/12/09 05:08:27;;;;;;;76.50;33.33;;;;;;;-3.29;82.94;100204.30;1666011;85;25924;-82
2021/12/09 05:13:30;;;;;;;51.50;23.70;;;;;;;-3.29;82.63;100204.30;1667239;85;25339;-82
2021/12/09 05:15:58;;;;;;;38.38;19.92;;;;;;;-3.34;82.63;100192.49;1663125;85;26490;-82
2021/12/09 05:18:27;;;;;;;43.75;20.10;;;;;;;-3.39;82.38;100180.19;1662485;85;25839;-80
2021/12/09 05:20:55;;;;;;;37.17;18.35;;;;;;;-3.34;82.74;100193.34;1665162;85;26202;-83
2021/12/09 05:23:23;;;;;;;44.70;24.52;;;;;;;-3.34;82.74;100193.34;1662019;85;27513;-82
2021/12/09 05:25:49;;;;;;;41.33;18.35;;;;;;;-3.29;82.87;100191.20;1664391;85;26509;-81
2021/12/09 05:28:17;;;;;;;38.33;19.10;;;;;;;-3.27;82.76;100198.48;1662241;85;25789;-82
2021/12/09 05:33:34;;;;;;;39.83;18.00;;;;;;;-3.25;82.58;100204.44;1658865;85;25362;-82
2021/12/09 05:36:01;;;;;;;34.70;16.07;;;;;;;-3.30;82.42;100201.34;1658722;85;28515;-81
2021/12/09 05:38:27;;;;;;;39.13;17.90;;;;;;;-3.30;82.42;100201.34;1658826;85;25815;-82
2021/12/09 05:40:55;;;;;;;35.95;16.87;;;;;;;-3.32;82.42;100191.91;1658266;85;25768;-82
2021/12/09 05:43:22;;;;;;;40.60;19.00;;;;;;;-3.31;82.42;100191.80;1660698;85;26571;-81
2021/12/09 05:45:49;;;;;;;34.80;16.45;;;;;;;-3.31;82.42;100193.09;1664217;85;25878;-81
2021/12/09 05:48:16;;;;;;;39.42;19.30;;;;;;;-3.32;82.33;100193.22;1673787;85;26894;-82
2021/12/09 05:50:42;;;;;;;34.80;17.75;;;;;;;-3.34;82.40;100205.59;1656145;85;25946;-82
2021/12/09 05:53:09;;;;;;;40.30;17.40;;;;;;;-3.34;82.46;100202.50;1662850;85;25970;-82
2021/12/09 05:55:35;;;;;;;28.67;13.05;;;;;;;-3.34;82.45;100206.43;1660120;85;25962;-81
2021/12/09 05:58:02;;;;;;;35.13;16.25;;;;;;;-3.34;82.45;100206.43;1664838;85;26162;-83
2021/12/09 06:00:29;;;;;;;32.38;15.72;;;;;;;-3.37;82.59;100194.85;1672823;85;28358;-81
2021/12/09 06:02:55;;;;;;;30.43;15.25;;;;;;;-3.39;82.50;100180.19;1665908;85;26639;-81
2021/12/09 06:05:23;;;;;;;37.38;18.30;;;;;;;-3.43;82.50;100184.81;1663402;85;26212;-81
2021/12/09 06:07:50;;;;;;;43.02;21.33;;;;;;;-3.43;82.73;100203.61;1663395;85;26661;-81
2021/12/09 06:10:16;;;;;;;31.68;16.15;;;;;;;-3.41;83.04;100196.48;1685260;83;26739;-82
2021/12/09 06:12:42;;;;;;;41.05;19.02;;;;;;;-3.38;82.92;100188.42;1687799;83;28411;-84
2021/12/09 06:15:09;;;;;;;33.92;16.45;;;;;;;-3.38;82.99;100194.47;1686665;83;26695;-82
2021/12/09 06:17:35;;;;;;;35.85;17.67;;;;;;;-3.37;82.99;100190.92;1678449;84;25815;-82
2021/12/09 06:20:02;;;;;;;37.98;18.67;;;;;;;-3.35;82.99;100197.35;1706056;83;26495;-83
2021/12/09 06:22:28;;;;;;;37.63;18.87;;;;;;;-3.41;83.00;100193.40;1706232;83;25846;-82
2021/12/09 06:24:54;;;;;;;35.68;18.20;;;;;;;-3.35;83.05;100206.05;1703726;83;27502;-82
2021/12/09 06:27:21;;;;;;;36.70;18.00;;;;;;;-3.34;83.10;100205.59;1673473;84;25799;-82
2021/12/09 06:29:47;;;;;;;50.52;20.72;;;;;;;-3.36;83.12;100212.72;1678613;85;26673;-82
2021/12/09 06:32:13;;;;;;;40.75;18.37;;;;;;;-3.31;83.28;100211.90;1690997;82;25977;-83
2021/12/09 06:34:39;;;;;;;41.13;17.48;;;;;;;-3.27;83.25;100223.83;1689672;82;25962;-81
2021/12/09 06:37:06;;;;;;;40.88;18.52;;;;;;;-3.30;83.34;100227.98;1690829;82;27483;-82
2021/12/09 06:39:32;;;;;;;42.23;19.27;;;;;;;-3.30;83.34;100227.98;1677339;85;25619;-81
2021/12/09 06:41:58;;;;;;;38.73;17.87;;;;;;;-3.30;83.20;100241.92;1703518;82;25285;-83
2021/12/09 06:44:25;;;;;;;37.17;16.85;;;;;;;-3.27;83.70;100236.92;1695569;83;25867;-82
2021/12/09 06:46:51;;;;;;;43.63;19.37;;;;;;;-3.27;83.70;100236.92;1689490;83;25835;-81
2021/12/09 06:49:17;;;;;;;35.17;17.35;;;;;;;-3.26;83.84;100232.06;1686956;83;27515;-82
2021/12/09 06:51:43;;;;;;;49.15;22.25;;;;;;;-3.24;83.84;100234.94;1683438;83;26497;-82
2021/12/09 06:54:10;;;;;;;39.67;19.70;;;;;;;-3.18;83.96;100236.28;1687445;83;25324;-82
2021/12/09 06:56:36;;;;;;;39.00;18.70;;;;;;;-3.18;83.96;100236.28;1682177;83;26772;-82
2021/12/09 06:59:03;;;;;;;43.05;20.08;;;;;;;-3.18;84.00;100239.73;1684850;83;25852;-84
2021/12/09 07:01:29;;;;;;;46.18;19.35;;;;;;;-3.12;84.16;100241.57;1689293;83;28289;-82
2021/12/09 07:03:55;;;;;;;73.33;44.03;;;;;;;-3.08;84.15;100253.50;1687391;83;26007;-82
2021/12/09 07:06:22;;;;;;;98.97;48.20;;;;;;;-3.05;84.16;100247.56;1678558;83;26684;-81
2021/12/09 07:08:49;;;;;;;105.00;51.23;;;;;;;-3.01;84.21;100256.88;1695658;83;26586;-82
2021/12/09 07:11:19;;;;;;;108.10;54.00;;;;;;;-2.99;84.13;100259.41;1689431;83;25386;-82
2021/12/09 07:13:47;;;;;;;51.95;28.95;;;;;;;-2.97;84.06;100251.77;1670286;85;27470;-82
2021/12/09 07:16:14;;;;;;;61.00;37.30;;;;;;;-2.96;83.96;100247.37;1697797;82;25835;-82
2021/12/09 07:18:41;;;;;;;55.33;32.15;;;;;;;-2.91;84.22;100242.19;1704438;83;25128;-81
2021/12/09 07:21:08;;;;;;;47.35;24.30;;;;;;;-2.88;84.16;100243.26;1693817;82;26481;-83
2021/12/09 07:23:34;;;;;;;50.80;31.07;;;;;;;-2.89;83.59;100231.58;1695121;82;25713;-82
2021/12/09 07:26:02;;;;;;;42.55;21.15;;;;;;;-2.89;83.59;100231.58;1686195;84;28412;-82
2021/12/09 07:28:28;;;;;;;44.80;22.67;;;;;;;-2.86;84.26;100227.41;1681986;83;25419;-82
2021/12/09 07:30:55;;;;;;;51.23;27.55;;;;;;;-2.86;83.99;100231.34;1677520;83;25859;-82
2021/12/09 07:33:21;;;;;;;91.78;45.75;;;;;;;-2.86;83.99;100231.34;1685354;83;26236;-81
2021/12/09 07:35:47;;;;;;;66.80;32.03;;;;;;;-2.91;83.97;100226.47;1686568;83;25886;-82
2021/12/09 07:38:15;;;;;;;53.83;26.37;;;;;;;-2.84;84.12;100226.83;1683232;84;28261;-81
2021/12/09 07:40:42;;;;;;;63.13;32.28;;;;;;;-2.87;84.08;100214.81;1681056;83;25846;-82
2021/12/09 07:43:08;;;;;;;56.23;25.17;;;;;;;-2.87;84.00;100199.55;1683712;83;26201;-81
2021/12/09 07:45:34;;;;;;;108.52;57.88;;;;;;;-2.87;84.11;100190.38;1676746;83;25941;-81
2021/12/09 07:48:01;;;;;;;81.95;37.75;;;;;;;-2.92;84.14;100189.41;1674770;84;25909;-81
2021/12/09 07:50:31;;;;;;;80.38;37.98;;;;;;;-2.95;84.16;100188.30;1671469;84;27699;-81
2021/12/09 07:52:59;;;;;;;73.45;34.75;;;;;;;-2.92;84.34;100199.88;1676066;84;26023;-82
2021/12/09 07:55:27;;;;;;;80.70;47.35;;;;;;;-2.90;84.54;100208.47;1674685;84;25935;-81
2021/12/09 07:57:54;;;;;;;56.60;29.48;;;;;;;-2.90;84.53;100208.94;1681983;84;26525;-81
2021/12/09 08:00:25;;;;;;;46.10;22.80;;;;;;;-2.86;84.65;100206.45;1680554;84;25731;-81
2021/12/09 08:02:54;;;;;;;46.10;24.47;;;;;;;-2.86;84.45;100210.37;1676153;84;28271;-80
2021/12/09 08:05:28;;;;;;;56.15;30.27;;;;;;;-2.86;84.46;100220.86;1677735;84;25784;-81
2021/12/09 08:07:54;;;;;;;72.50;36.73;;;;;;;-2.87;84.51;100225.29;1656597;84;25855;-82
2021/12/09 08:10:23;;;;;;;70.67;39.73;;;;;;;-2.83;84.58;100232.45;1680606;84;25814;-81
2021/12/09 08:12:51;;;;;;;65.95;33.08;;;;;;;-2.82;84.64;100231.02;1676064;84;25911;-81
2021/12/09 08:15:18;;;;;;;69.10;30.35;;;;;;;-2.77;84.61;100235.92;1674293;84;27498;-81
2021/12/09 08:17:56;;;;;;;251.35;91.50;;;;;;;-2.74;84.65;100237.03;1673204;84;26536;-81
2021/12/09 08:20:16;;;;;;;306.20;106.85;;;;;;;-2.71;84.68;100234.16;1670181;84;25986;-82
2021/12/09 08:22:44;;;;;;;167.60;77.77;;;;;;;-2.70;84.69;100239.32;1673748;84;26766;-82
2021/12/09 08:25:14;;;;;;;72.12;35.50;;;;;;;-2.67;84.83;100253.50;1672403;84;25860;-81
2021/12/09 08:27:45;;;;;;;204.40;103.22;;;;;;;-2.66;84.68;100259.11;1677015;84;27485;-81
2021/12/09 08:30:16;;;;;;;85.25;50.60;;;;;;;-2.65;84.66;100259.96;1672601;84;26833;-82
2021/12/09 08:32:43;;;;;;;57.75;26.57;;;;;;;-2.70;84.59;100247.65;1679735;84;26339;-80
2021/12/09 08:35:10;;;;;;;71.17;36.90;;;;;;;-2.64;84.52;100257.22;1675303;84;25783;-82
2021/12/09 08:37:36;;;;;;;74.72;36.40;;;;;;;-2.64;84.52;100257.22;1678905;84;25933;-81
2021/12/09 08:40:06;;;;;;;53.45;28.20;;;;;;;-2.64;84.67;100252.44;1678005;84;27429;-83
2021/12/09 08:42:33;;;;;;;43.83;21.62;;;;;;;-2.64;84.67;100252.44;1677299;84;25970;-81
2021/12/09 08:44:59;;;;;;;60.95;32.00;;;;;;;-2.58;84.43;100263.32;1672094;84;25918;-82
2021/12/09 08:47:25;;;;;;;51.15;24.75;;;;;;;-2.56;84.47;100258.80;1678555;84;25843;-82
2021/12/09 08:49:52;;;;;;;45.75;21.90;;;;;;;-2.52;84.42;100263.33;1678105;84;25773;-82
2021/12/09 08:52:18;;;;;;;58.48;24.85;;;;;;;-2.51;84.30;100233.09;1676369;84;27967;-81
2021/12/09 08:54:45;;;;;;;51.10;24.57;;;;;;;-2.51;84.30;100233.09;1683244;84;25925;-82
2021/12/09 08:57:11;;;;;;;77.00;38.90;;;;;;;-2.45;84.66;100243.59;1679245;84;25902;-83
2021/12/09 08:59:38;;;;;;;85.32;50.05;;;;;;;-2.44;84.27;100251.33;1675342;84;25838;-83
2021/12/09 09:02:05;;;;;;;61.40;35.58;;;;;;;-2.41;84.48;100251.12;1671816;84;25357;-80
2021/12/09 09:04:31;;;;;;;101.65;51.00;;;;;;;-2.37;84.27;100256.50;1671616;84;27554;-84
2021/12/09 09:07:00;;;;;;;125.72;70.52;;;;;;;-2.32;84.42;100246.13;1664134;84;25917;-83
2021/12/09 09:09:33;;;;;;;93.27;47.65;;;;;;;-2.24;84.38;100254.27;1676635;84;25758;-82
2021/12/09 09:11:56;;;;;;;102.80;44.70;;;;;;;-2.18;84.37;100255.95;1669264;84;25854;-83
2021/12/09 09:14:22;;;;;;;65.12;33.15;;;;;;;-2.12;84.21;100250.28;1674788;84;25709;-84
2021/12/09 09:16:50;;;;;;;55.65;30.43;;;;;;;-2.09;83.99;100250.03;1679570;84;28264;-83
2021/12/09 09:19:16;;;;;;;56.15;34.27;;;;;;;-2.10;83.97;100258.87;1675688;84;25761;-83
2021/12/09 09:21:42;;;;;;;46.55;28.70;;;;;;;-2.09;83.82;100258.37;1680150;84;25829;-83
2021/12/09 09:24:10;;;;;;;45.33;26.90;;;;;;;-2.05;83.76;100259.84;1680300;84;25864;-82
2021/12/09 09:26:38;;;;;;;54.90;28.23;;;;;;;-2.03;83.72;100242.19;1676721;84;26008;-82
2021/12/09 09:29:04;;;;;;;59.48;30.97;;;;;;;-2.03;83.77;100238.25;1676104;84;28365;-81
2021/12/09 09:31:32;;;;;;;56.37;27.20;;;;;;;-1.99;83.90;100247.06;1669479;84;25779;-81
2021/12/09 09:34:02;;;;;;;56.60;28.95;;;;;;;-1.95;83.85;100234.56;1676757;84;25892;-82
2021/12/09 09:36:34;;;;;;;49.70;26.40;;;;;;;-1.91;83.93;100223.72;1673327;84;25858;-82
2021/12/09 09:39:16;;;;;;;59.40;29.63;;;;;;;-1.88;83.65;100213.47;1681714;84;25850;-83
2021/12/09 09:41:34;;;;;;;51.90;28.38;;;;;;;-1.88;83.61;100216.09;1666647;84;27452;-84
2021/12/09 09:44:17;;;;;;;39.65;22.17;;;;;;;-1.90;83.12;100225.38;1676274;84;25905;-84
2021/12/09 09:46:43;;;;;;;45.33;20.92;;;;;;;-1.93;83.26;100209.87;1678156;84;26369;-82
2021/12/09 09:49:11;;;;;;;49.50;21.55;;;;;;;-1.93;83.46;100198.07;1672729;84;26547;-81
2021/12/09 09:51:39;;;;;;;43.10;23.18;;;;;;;-1.91;83.48;100196.16;1670874;84;25824;-83
2021/12/09 09:54:09;;;;;;;51.25;26.07;;;;;;;-1.89;83.62;100189.00;1682629;84;26784;-83
2021/12/09 09:56:41;;;;;;;59.85;32.98;;;;;;;-1.85;83.76;100179.09;1671854;84;27035;-86
2021/12/09 09:59:08;;;;;;;64.25;45.60;;;;;;;-1.78;83.83;100190.33;1678690;84;25881;-85
2021/12/09 10:01:37;;;;;;;53.03;30.57;;;;;;;-1.72;83.74;100202.13;1660817;85;25866;-82
2021/12/09 10:04:25;;;;;;;54.05;36.53;;;;;;;-1.71;83.49;100198.06;1679864;84;25727;-87
2021/12/09 10:06:44;;;;;;;53.83;34.30;;;;;;;-1.68;83.49;100203.56;1671951;84;27509;-87
2021/12/09 10:09:14;;;;;;;64.65;45.33;;;;;;;-1.66;83.60;100203.81;1678946;84;26216;-84
2021/12/09 10:11:41;;;;;;;55.67;33.70;;;;;;;-1.61;83.48;100198.20;1677596;84;26610;-85
2021/12/09 10:14:18;;;;;;;62.00;37.53;;;;;;;-1.59;83.68;100187.94;1679092;84;26662;-83
2021/12/09 10:16:49;;;;;;;52.83;28.45;;;;;;;-1.58;83.48;100194.00;1680716;84;25976;-85
2021/12/09 10:19:20;;;;;;;47.70;25.35;;;;;;;-1.54;83.73;100188.06;1677064;84;33294;-82
2021/12/09 10:21:48;;;;;;;58.17;31.48;;;;;;;-1.53;83.58;100197.12;1676358;84;25610;-83
2021/12/09 10:24:16;;;;;;;57.17;30.37;;;;;;;-1.52;83.39;100208.47;1679959;84;25762;-83
2021/12/09 10:26:45;;;;;;;44.65;23.27;;;;;;;-1.54;83.41;100205.97;1674670;84;26034;-83
2021/12/09 10:29:26;;;;;;;60.00;36.42;;;;;;;-1.56;83.48;100211.32;1677139;84;25811;-83
2021/12/09 10:31:53;;;;;;;47.43;29.50;;;;;;;-1.53;83.74;100213.34;1703461;83;27457;-82
2021/12/09 10:34:35;;;;;;;49.10;29.42;;;;;;;-1.48;83.86;100209.42;1669942;84;26663;-83
2021/12/09 10:37:21;;;;;;;51.23;30.80;;;;;;;-1.47;83.79;100203.20;1676517;84;25932;-82
2021/12/09 10:40:01;;;;;;;45.60;22.30;;;;;;;-1.52;83.79;100193.55;1665385;84;26612;-84
2021/12/09 10:42:31;;;;;;;48.65;23.35;;;;;;;-1.43;84.02;100199.38;1667298;84;26317;-83
2021/12/09 10:45:20;;;;;;;;;;;;;;;-1.40;83.98;100197.83;1671672;84;27468;-83
2021/12/09 10:47:55;;;;;;;51.92;24.55;;;;;;;-1.39;83.92;100185.54;1675139;84;25775;-83
2021/12/09 10:50:39;;;;;;;57.23;28.77;;;;;;;-1.44;83.79;100205.60;1675724;84;25827;-82
2021/12/09 10:53:32;;;;;;;55.15;24.92;;;;;;;-1.43;83.90;100199.87;1671757;84;26552;-83
2021/12/09 10:55:55;;;;;;;62.67;33.58;;;;;;;-1.39;84.04;100187.66;1671902;84;25832;-82
2021/12/09 10:58:29;;;;;;;61.68;34.05;;;;;;;-1.41;83.95;100185.64;1667890;84;27475;-82
2021/12/09 11:01:03;;;;;;;50.20;28.05;;;;;;;-1.40;83.94;100174.19;1671534;84;25888;-82
2021/12/09 11:03:43;;;;;;;77.37;40.45;;;;;;;-1.39;83.92;100167.96;1672859;84;25862;-82
2021/12/09 11:06:12;;;;;;;73.17;37.25;;;;;;;-1.37;84.17;100163.45;1669522;84;26578;-82
2021/12/09 11:08:50;;;;;;;64.92;36.65;;;;;;;-1.34;84.09;100161.88;1669781;84;26521;-84
2021/12/09 11:11:39;;;;;;;61.13;31.77;;;;;;;-1.31;84.14;100156.86;1676364;84;27466;-82
2021/12/09 11:14:14;;;;;;;56.85;29.75;;;;;;;-1.29;84.16;100153.63;1654019;85;26621;-83
2021/12/09 11:16:49;;;;;;;48.10;24.92;;;;;;;-1.28;84.12;100142.99;1657172;85;25848;-83
2021/12/09 11:19:25;;;;;;;54.95;28.15;;;;;;;-1.27;84.23;100142.05;1665850;85;25924;-82
2021/12/09 11:21:56;;;;;;;57.25;33.13;;;;;;;-1.26;83.99;100133.20;1656585;85;25839;-82